createdAt,value
2022-11-20T00:00:35.036Z,19.90
2022-11-20T00:03:23.259Z,19.20
2022-11-20T00:05:56.640Z,22.00
2022-11-20T00:08:29.564Z,19.40
2022-11-20T00:11:04.344Z,20.10
2022-11-20T00:13:38.160Z,19.90
2022-11-20T00:16:14.770Z,20.30
2022-11-20T00:18:47.673Z,20.30
2022-11-20T00:21:23.023Z,22.60
2022-11-20T00:23:58.637Z,20.30
2022-11-20T00:26:32.003Z,20.20
2022-11-20T00:29:05.617Z,22.00
2022-11-20T00:31:39.146Z,19.70
2022-11-20T00:34:11.994Z,19.60
2022-11-20T00:36:45.008Z,19.90
2022-11-20T00:39:19.092Z,20.80
2022-11-20T00:41:54.475Z,22.90
2022-11-20T00:44:28.460Z,22.50
2022-11-20T00:47:01.312Z,22.50
2022-11-20T00:49:33.968Z,21.60
2022-11-20T00:52:07.431Z,23.00
2022-11-20T00:54:41.144Z,21.90
2022-11-20T00:57:14.727Z,21.90
2022-11-20T00:59:47.238Z,23.80
2022-11-20T01:02:20.073Z,23.00
2022-11-20T01:04:52.955Z,22.80
2022-11-20T01:07:26.083Z,24.30
2022-11-20T01:09:59.108Z,25.60
2022-11-20T01:12:32.168Z,25.70
2022-11-20T01:15:04.690Z,21.80
2022-11-20T01:17:37.023Z,25.60
2022-11-20T01:20:12.529Z,23.10
2022-11-20T01:22:46.401Z,21.30
2022-11-20T01:25:20.017Z,25.30
2022-11-20T01:27:52.859Z,22.50
2022-11-20T01:30:25.215Z,19.20
2022-11-20T01:32:59.078Z,23.60
2022-11-20T01:35:32.014Z,23.00
2022-11-20T01:38:04.571Z,22.50
2022-11-20T01:40:36.978Z,25.20
2022-11-20T01:43:26.335Z,24.20
2022-11-20T01:46:08.775Z,22.30
2022-11-20T01:48:47.350Z,21.50
2022-11-20T01:51:29.215Z,24.30
2022-11-20T01:54:07.313Z,24.80
2022-11-20T01:56:45.615Z,21.70
2022-11-20T01:59:22.589Z,22.30
2022-11-20T02:01:56.477Z,22.60
2022-11-20T02:04:28.998Z,21.40
2022-11-20T02:07:04.928Z,22.80
2022-11-20T02:09:37.843Z,22.50
2022-11-20T02:12:31.207Z,22.90
2022-11-20T02:15:04.727Z,20.30
2022-11-20T02:17:38.860Z,20.60
2022-11-20T02:20:14.183Z,21.40
2022-11-20T02:22:56.862Z,20.00
2022-11-20T02:25:33.797Z,19.60
2022-11-20T02:28:07.695Z,22.20
2022-11-20T02:30:40.642Z,17.30
2022-11-20T02:33:13.054Z,19.30
2022-11-20T02:35:50.249Z,21.60
2022-11-20T02:38:23.998Z,18.10
2022-11-20T02:40:56.885Z,17.40
2022-11-20T02:43:30.192Z,19.50
2022-11-20T02:46:03.319Z,16.70
2022-11-20T02:48:36.050Z,18.30
2022-11-20T02:51:10.279Z,17.00
2022-11-20T02:53:42.951Z,15.80
2022-11-20T02:56:15.510Z,19.20
2022-11-20T02:58:48.795Z,17.60
2022-11-20T03:01:21.656Z,17.30
2022-11-20T03:03:56.083Z,16.30
2022-11-20T03:06:28.433Z,15.20
2022-11-20T03:09:01.268Z,14.40
2022-11-20T03:11:34.055Z,17.60
2022-11-20T03:14:07.991Z,15.20
2022-11-20T03:16:41.161Z,14.80
2022-11-20T03:19:14.848Z,15.50
2022-11-20T03:21:48.665Z,15.00
2022-11-20T03:24:21.042Z,14.60
2022-11-20T03:26:53.721Z,14.40
2022-11-20T03:29:27.337Z,13.30
2022-11-20T03:31:59.782Z,14.90
2022-11-20T03:34:32.627Z,14.60
2022-11-20T03:37:04.904Z,14.10
2022-11-20T03:39:37.187Z,14.00
2022-11-20T03:42:30.546Z,13.00
2022-11-20T03:45:03.591Z,12.30
2022-11-20T03:47:37.068Z,11.40
2022-11-20T03:50:13.543Z,10.70
2022-11-20T03:52:46.686Z,10.10
2022-11-20T03:55:19.778Z,12.00
2022-11-20T03:57:52.153Z,11.10
2022-11-20T04:00:24.635Z,10.90
2022-11-20T04:03:00.597Z,9.70
2022-11-20T04:05:35.813Z,10.20
2022-11-20T04:08:09.674Z,8.60
2022-11-20T04:10:42.763Z,10.60
2022-11-20T04:13:17.566Z,8.50
2022-11-20T04:15:50.968Z,11.50
2022-11-20T04:18:24.731Z,11.40
2022-11-20T04:20:58.497Z,10.60
2022-11-20T04:23:31.610Z,8.90
2022-11-20T04:26:08.987Z,10.10
2022-11-20T04:28:42.589Z,9.60
2022-11-20T04:31:18.437Z,10.80
2022-11-20T04:36:26.014Z,13.00
2022-11-20T04:39:00.354Z,9.70
2022-11-20T04:41:37.284Z,10.60
2022-11-20T04:44:10.630Z,11.20
2022-11-20T04:46:45.376Z,11.80
2022-11-20T04:49:18.382Z,11.00
2022-11-20T04:51:51.663Z,11.20
2022-11-20T04:54:25.843Z,12.50
2022-11-20T04:56:59.545Z,11.40
2022-11-20T04:59:31.988Z,12.10
2022-11-20T05:02:05.255Z,12.20
2022-11-20T05:04:38.045Z,12.90
2022-11-20T05:07:10.891Z,10.40
2022-11-20T05:09:43.715Z,10.50
2022-11-20T05:12:16.903Z,10.00
2022-11-20T05:14:49.202Z,11.50
2022-11-20T05:17:23.024Z,12.50
2022-11-20T05:19:55.954Z,11.10
2022-11-20T05:22:28.400Z,12.80
2022-11-20T05:25:00.957Z,11.80
2022-11-20T05:27:33.813Z,10.40
2022-11-20T05:30:07.416Z,12.60
2022-11-20T05:32:40.084Z,9.70
2022-11-20T05:35:13.090Z,10.20
2022-11-20T05:37:45.419Z,11.40
2022-11-20T05:40:19.358Z,11.90
2022-11-20T05:42:51.972Z,12.10
2022-11-20T05:45:25.455Z,11.60
2022-11-20T05:48:02.300Z,10.10
2022-11-20T05:50:35.771Z,9.50
2022-11-20T05:53:08.529Z,10.10
2022-11-20T05:55:42.135Z,10.20
2022-11-20T05:58:15.326Z,8.30
2022-11-20T06:00:47.895Z,9.40
2022-11-20T06:03:21.329Z,9.80
2022-11-20T06:05:54.347Z,9.00
2022-11-20T06:08:27.246Z,10.30
2022-11-20T06:11:00.228Z,8.80
2022-11-20T06:13:35.232Z,8.70
2022-11-20T06:16:10.104Z,8.90
2022-11-20T06:18:45.765Z,8.30
2022-11-20T06:21:21.294Z,9.80
2022-11-20T06:23:55.833Z,7.30
2022-11-20T06:26:30.250Z,8.00
2022-11-20T06:29:04.367Z,5.80
2022-11-20T06:31:39.140Z,6.10
2022-11-20T06:34:13.418Z,6.40
2022-11-20T06:36:47.037Z,5.80
2022-11-20T06:39:20.937Z,7.20
2022-11-20T06:41:58.560Z,7.30
2022-11-20T06:44:32.010Z,5.10
2022-11-20T06:47:05.502Z,5.70
2022-11-20T06:49:39.627Z,5.30
2022-11-20T06:52:11.998Z,4.90
2022-11-20T06:54:44.658Z,3.80
2022-11-20T06:57:17.522Z,5.20
2022-11-20T06:59:52.616Z,4.80
2022-11-20T07:02:25.211Z,3.80
2022-11-20T07:04:58.394Z,4.20
2022-11-20T07:07:31.229Z,5.00
2022-11-20T07:10:04.095Z,5.80
2022-11-20T07:12:36.533Z,4.70
2022-11-20T07:15:11.770Z,4.10
2022-11-20T07:17:44.317Z,4.90
2022-11-20T07:20:18.048Z,5.60
2022-11-20T07:22:55.726Z,5.30
2022-11-20T07:25:31.522Z,3.50
2022-11-20T07:28:04.798Z,4.60
2022-11-20T07:30:37.186Z,4.20
2022-11-20T07:33:09.850Z,4.50
2022-11-20T07:35:42.995Z,4.90
2022-11-20T07:38:17.608Z,6.90
2022-11-20T07:40:51.037Z,5.10
2022-11-20T07:43:23.885Z,6.30
2022-11-20T07:45:57.348Z,5.20
2022-11-20T07:48:30.710Z,4.80
2022-11-20T07:51:03.556Z,4.30
2022-11-20T07:53:36.886Z,5.90
2022-11-20T07:56:10.694Z,4.10
2022-11-20T07:58:43.367Z,5.40
2022-11-20T08:01:16.110Z,5.80
2022-11-20T08:03:48.941Z,5.30
2022-11-20T08:06:23.409Z,3.90
2022-11-20T08:08:56.544Z,3.60
2022-11-20T08:11:46.838Z,5.30
2022-11-20T08:14:19.872Z,4.30
2022-11-20T08:16:53.829Z,4.60
2022-11-20T08:19:28.042Z,5.60
2022-11-20T08:22:01.231Z,5.60
2022-11-20T08:24:34.275Z,4.60
2022-11-20T08:27:07.731Z,3.80
2022-11-20T08:29:40.514Z,5.60
2022-11-20T08:32:14.518Z,5.80
2022-11-20T08:34:47.455Z,4.80
2022-11-20T08:37:20.435Z,4.70
2022-11-20T08:39:54.723Z,6.20
2022-11-20T08:42:27.543Z,6.90
2022-11-20T08:45:00.174Z,7.80
2022-11-20T08:47:33.374Z,6.60
2022-11-20T08:50:09.182Z,6.20
2022-11-20T08:52:42.724Z,7.70
2022-11-20T08:55:16.154Z,7.30
2022-11-20T08:57:51.006Z,6.50
2022-11-20T09:00:24.284Z,8.10
2022-11-20T09:02:57.332Z,8.00
2022-11-20T09:05:30.000Z,7.30
2022-11-20T09:08:03.818Z,8.90
2022-11-20T09:10:37.700Z,8.80
2022-11-20T09:13:10.445Z,9.60
2022-11-20T09:15:44.117Z,7.80
2022-11-20T09:18:18.097Z,6.70
2022-11-20T09:20:51.019Z,8.30
2022-11-20T09:23:23.330Z,7.70
2022-11-20T09:26:00.628Z,6.90
2022-11-20T09:28:34.874Z,8.30
2022-11-20T09:31:11.320Z,7.30
2022-11-20T09:33:44.224Z,7.40
2022-11-20T09:36:18.129Z,10.70
2022-11-20T09:38:51.239Z,8.20
2022-11-20T09:41:39.479Z,7.40
2022-11-20T09:44:27.020Z,7.00
2022-11-20T09:47:05.653Z,9.00
2022-11-20T09:49:56.051Z,10.40
2022-11-20T09:52:44.238Z,8.40
2022-11-20T09:55:18.784Z,7.60
2022-11-20T09:57:56.954Z,7.30
2022-11-20T10:00:31.245Z,6.90
2022-11-20T10:03:13.184Z,8.20
2022-11-20T10:05:49.908Z,8.60
2022-11-20T10:08:26.498Z,6.60
2022-11-20T10:11:07.289Z,8.00
2022-11-20T10:13:50.042Z,7.60
2022-11-20T10:16:39.539Z,8.80
2022-11-20T10:19:31.573Z,8.80
2022-11-20T10:22:12.255Z,8.60
2022-11-20T10:24:56.138Z,9.90
2022-11-20T10:27:49.418Z,9.60
2022-11-20T10:30:26.340Z,9.00
2022-11-20T10:33:03.578Z,40.00
2022-11-20T10:35:42.888Z,12.00
2022-11-20T10:38:22.578Z,10.10
2022-11-20T10:41:21.209Z,10.00
2022-11-20T10:43:59.594Z,8.80
2022-11-20T10:46:40.783Z,9.60
2022-11-20T10:49:22.670Z,7.40
2022-11-20T10:52:07.711Z,7.50
2022-11-20T10:54:50.353Z,7.30
2022-11-20T10:57:35.556Z,8.40
2022-11-20T11:00:12.457Z,8.80
2022-11-20T11:02:49.947Z,7.70
2022-11-20T11:05:34.090Z,7.60
2022-11-20T11:08:10.404Z,9.40
2022-11-20T11:10:49.040Z,8.50
2022-11-20T11:13:28.354Z,8.10
2022-11-20T11:16:01.377Z,9.30
2022-11-20T11:18:37.214Z,8.50
2022-11-20T11:23:44.543Z,8.40
2022-11-20T11:26:26.158Z,7.10
2022-11-20T11:29:02.474Z,8.10
2022-11-20T11:31:37.981Z,9.90
2022-11-20T11:34:14.978Z,10.40
2022-11-20T11:36:57.258Z,14.70
2022-11-20T11:39:33.101Z,11.80
2022-11-20T11:42:15.121Z,13.10
2022-11-20T11:45:09.600Z,12.10
2022-11-20T11:47:49.566Z,14.40
2022-11-20T11:50:25.784Z,13.00
2022-11-20T11:53:14.975Z,12.90
2022-11-20T11:55:52.923Z,13.10
2022-11-20T11:58:40.854Z,16.20
2022-11-20T12:01:27.256Z,13.60
2022-11-20T12:06:45.406Z,12.00
2022-11-20T12:09:20.963Z,13.30
2022-11-20T12:12:01.587Z,11.90
2022-11-20T12:14:39.323Z,10.40
2022-11-20T12:17:16.545Z,13.20
2022-11-20T12:19:49.719Z,12.30
2022-11-20T12:22:31.434Z,10.50
2022-11-20T12:25:11.178Z,9.20
2022-11-20T12:28:05.666Z,9.70
2022-11-20T12:30:44.614Z,10.40
2022-11-20T12:33:44.812Z,10.70
2022-11-20T12:36:29.202Z,13.50
2022-11-20T12:39:34.433Z,13.30
2022-11-20T12:42:43.179Z,12.90
2022-11-20T12:45:38.134Z,11.30
2022-11-20T12:48:41.061Z,11.40
2022-11-20T12:51:30.296Z,10.50
2022-11-20T12:54:24.857Z,11.50
2022-11-20T12:57:08.806Z,9.70
2022-11-20T13:00:08.614Z,10.70
2022-11-20T13:02:58.189Z,8.20
2022-11-20T13:05:39.498Z,9.90
2022-11-20T13:08:19.448Z,11.50
2022-11-20T13:11:01.227Z,11.10
2022-11-20T13:13:46.482Z,10.40
2022-11-20T13:16:27.087Z,9.40
2022-11-20T13:19:03.674Z,10.30
2022-11-20T13:21:42.577Z,12.30
2022-11-20T13:24:28.821Z,15.50
2022-11-20T13:27:21.344Z,50.40
2022-11-20T13:30:15.575Z,36.40
2022-11-20T13:33:01.119Z,18.00
2022-11-20T13:35:57.474Z,15.40
2022-11-20T13:38:43.334Z,13.80
2022-11-20T13:41:32.649Z,13.10
2022-11-20T13:44:16.996Z,14.00
2022-11-20T13:46:54.762Z,13.00
2022-11-20T13:49:44.855Z,13.60
2022-11-20T13:52:38.399Z,11.70
2022-11-20T13:55:20.848Z,12.20
2022-11-20T13:58:14.212Z,11.40
2022-11-20T14:00:54.153Z,13.20
2022-11-20T14:04:04.426Z,12.40
2022-11-20T14:06:30.755Z,12.10
2022-11-20T14:09:03.628Z,11.80
2022-11-20T14:11:36.801Z,11.70
2022-11-20T14:14:20.728Z,11.90
2022-11-20T14:17:07.242Z,11.90
2022-11-20T14:19:44.499Z,14.50
2022-11-20T14:22:24.223Z,12.70
2022-11-20T14:25:22.668Z,12.50
2022-11-20T14:27:58.464Z,14.60
2022-11-20T14:30:41.643Z,13.00
2022-11-20T14:33:16.955Z,15.00
2022-11-20T14:35:51.982Z,16.70
2022-11-20T14:38:28.058Z,16.00
2022-11-20T14:41:11.589Z,17.00
2022-11-20T14:43:50.129Z,16.20
2022-11-20T14:46:24.708Z,16.40
2022-11-20T14:49:03.911Z,15.60
2022-11-20T14:51:42.460Z,15.40
2022-11-20T14:54:19.307Z,16.10
2022-11-20T14:57:03.002Z,14.50
2022-11-20T14:59:37.246Z,13.30
2022-11-20T15:02:14.567Z,11.10
2022-11-20T15:05:04.324Z,14.10
2022-11-20T15:07:39.082Z,12.20
2022-11-20T15:10:23.817Z,11.10
2022-11-20T15:13:01.227Z,10.50
2022-11-20T15:15:38.348Z,12.20
2022-11-20T15:18:16.094Z,11.80
2022-11-20T15:20:49.496Z,13.00
2022-11-20T15:23:22.838Z,13.30
2022-11-20T15:25:55.880Z,13.20
2022-11-20T15:28:33.933Z,11.50
2022-11-20T15:31:07.822Z,12.50
2022-11-20T15:33:40.136Z,14.10
2022-11-20T15:36:13.725Z,11.50
2022-11-20T15:38:46.254Z,9.50
2022-11-20T15:41:19.333Z,10.80
2022-11-20T15:43:52.719Z,10.40
2022-11-20T15:46:29.513Z,11.60
2022-11-20T15:49:04.118Z,9.80
2022-11-20T15:51:39.542Z,11.40
2022-11-20T15:54:18.691Z,11.40
2022-11-20T15:56:53.531Z,11.50
2022-11-20T15:59:25.934Z,14.50
2022-11-20T16:01:59.345Z,10.30
2022-11-20T16:04:34.569Z,11.70
2022-11-20T16:07:07.980Z,13.80
2022-11-20T16:09:40.579Z,13.70
2022-11-20T16:12:35.823Z,14.80
2022-11-20T16:15:29.535Z,17.10
2022-11-20T16:18:02.972Z,16.10
2022-11-20T16:20:35.841Z,16.90
2022-11-20T16:23:09.522Z,20.30
2022-11-20T16:25:42.650Z,17.10
2022-11-20T16:28:18.918Z,18.40
2022-11-20T16:30:52.340Z,18.00
2022-11-20T16:33:28.760Z,17.60
2022-11-20T16:36:10.558Z,15.70
2022-11-20T16:38:44.019Z,16.90
2022-11-20T16:41:17.170Z,17.30
2022-11-20T16:43:51.875Z,15.80
2022-11-20T16:46:26.454Z,15.80
2022-11-20T16:49:01.194Z,15.10
2022-11-20T16:51:36.492Z,16.10
2022-11-20T16:54:16.495Z,20.20
2022-11-20T16:56:53.618Z,18.70
2022-11-20T16:59:25.951Z,18.00
2022-11-20T17:02:01.226Z,16.60
2022-11-20T17:04:33.879Z,17.50
2022-11-20T17:07:08.261Z,16.70
2022-11-20T17:09:41.065Z,16.80
2022-11-20T17:12:14.526Z,18.30
2022-11-20T17:14:46.897Z,17.40
2022-11-20T17:17:19.813Z,16.30
2022-11-20T17:19:53.208Z,17.10
2022-11-20T17:22:25.611Z,18.10
2022-11-20T17:24:58.343Z,16.80
2022-11-20T17:27:31.046Z,16.50
2022-11-20T17:30:03.897Z,17.30
2022-11-20T17:32:36.793Z,17.30
2022-11-20T17:35:10.752Z,18.40
2022-11-20T17:37:43.113Z,17.70
2022-11-20T17:40:16.048Z,15.90
2022-11-20T17:42:48.540Z,16.30
2022-11-20T17:45:21.526Z,14.70
2022-11-20T17:47:54.599Z,15.10
2022-11-20T17:50:29.992Z,15.50
2022-11-20T17:53:02.345Z,13.50
2022-11-20T17:55:54.207Z,15.60
2022-11-20T17:58:30.684Z,18.20
2022-11-20T18:01:09.501Z,16.90
2022-11-20T18:03:42.716Z,16.40
2022-11-20T18:06:16.986Z,17.40
2022-11-20T18:08:50.535Z,15.60
2022-11-20T18:11:26.088Z,16.10
2022-11-20T18:14:17.670Z,14.70
2022-11-20T18:16:52.719Z,18.90
2022-11-20T18:19:31.453Z,15.60
2022-11-20T18:22:06.720Z,18.40
2022-11-20T18:24:40.391Z,16.70
2022-11-20T18:27:19.470Z,15.70
2022-11-20T18:29:52.587Z,16.20
2022-11-20T18:32:26.935Z,14.60
2022-11-20T18:34:59.487Z,17.80
2022-11-20T18:37:32.597Z,16.80
2022-11-20T18:40:05.512Z,16.60
2022-11-20T18:42:57.746Z,15.30
2022-11-20T18:45:30.944Z,14.40
2022-11-20T18:48:03.663Z,16.90
2022-11-20T18:50:36.578Z,16.50
2022-11-20T18:53:09.583Z,15.60
2022-11-20T18:55:42.783Z,18.90
2022-11-20T18:58:15.221Z,15.20
2022-11-20T19:00:47.940Z,14.40
2022-11-20T19:03:21.192Z,16.10
2022-11-20T19:05:53.434Z,17.30
2022-11-20T19:08:25.738Z,17.30
2022-11-20T19:11:06.434Z,18.90
2022-11-20T19:13:38.963Z,16.80
2022-11-20T19:16:15.603Z,15.30
2022-11-20T19:18:50.040Z,17.80
2022-11-20T19:21:24.169Z,15.70
2022-11-20T19:23:59.036Z,15.60
2022-11-20T19:26:32.333Z,16.60
2022-11-20T19:29:05.075Z,16.90
2022-11-20T19:31:37.970Z,19.40
2022-11-20T19:34:12.023Z,17.20
2022-11-20T19:36:45.160Z,19.80
2022-11-20T19:39:18.625Z,16.40
2022-11-20T19:41:51.059Z,18.70
2022-11-20T19:44:23.852Z,24.10
2022-11-20T19:46:57.439Z,22.30
2022-11-20T19:49:30.535Z,18.50
2022-11-20T19:52:03.175Z,21.30
2022-11-20T19:54:35.700Z,22.30
2022-11-20T19:57:08.553Z,18.30
2022-11-20T19:59:41.005Z,16.30
2022-11-20T20:02:15.181Z,16.00
2022-11-20T20:04:48.542Z,19.00
2022-11-20T20:07:22.188Z,15.80
2022-11-20T20:09:54.478Z,18.20
2022-11-20T20:12:26.766Z,16.30
2022-11-20T20:15:00.031Z,15.60
2022-11-20T20:17:32.401Z,17.20
2022-11-20T20:20:04.974Z,17.00
2022-11-20T20:22:37.387Z,18.80
2022-11-20T20:25:11.138Z,16.60
2022-11-20T20:27:44.031Z,17.40
2022-11-20T20:30:17.863Z,14.60
2022-11-20T20:32:55.859Z,14.60
2022-11-20T20:35:28.959Z,17.30
2022-11-20T20:38:01.540Z,15.00
2022-11-20T20:40:34.157Z,15.80
2022-11-20T20:43:06.771Z,12.40
2022-11-20T20:45:45.626Z,15.90
2022-11-20T20:48:19.350Z,15.90
2022-11-20T20:50:58.559Z,17.00
2022-11-20T20:53:32.863Z,15.90
2022-11-20T20:56:07.652Z,17.10
2022-11-20T20:58:40.639Z,15.30
2022-11-20T21:01:15.128Z,14.20
2022-11-20T21:03:48.973Z,14.60
2022-11-20T21:06:21.768Z,13.90
2022-11-20T21:08:56.147Z,16.40
2022-11-20T21:11:29.652Z,16.90
2022-11-20T21:14:02.430Z,14.70
2022-11-20T21:16:41.353Z,17.30
2022-11-20T21:19:13.826Z,18.10
2022-11-20T21:22:03.299Z,17.80
2022-11-20T21:24:37.318Z,18.10
2022-11-20T21:27:10.289Z,18.10
2022-11-20T21:29:43.507Z,18.90
2022-11-20T21:32:16.571Z,17.90
2022-11-20T21:34:50.875Z,19.10
2022-11-20T21:37:23.331Z,18.30
2022-11-20T21:39:58.768Z,22.70
2022-11-20T21:42:33.236Z,22.40
2022-11-20T21:45:06.121Z,19.40
2022-11-20T21:47:38.474Z,21.20
2022-11-20T21:50:11.743Z,20.10
2022-11-20T21:52:44.025Z,23.10
2022-11-20T21:55:16.447Z,24.40
2022-11-20T21:57:48.783Z,22.50
2022-11-20T22:00:22.131Z,23.90
2022-11-20T22:02:54.669Z,20.70
2022-11-20T22:05:27.451Z,21.40
2022-11-20T22:07:59.718Z,20.10
2022-11-20T22:10:32.174Z,21.40
2022-11-20T22:13:21.564Z,24.90
2022-11-20T22:16:00.761Z,22.80
2022-11-20T22:18:33.543Z,20.90
2022-11-20T22:21:08.527Z,23.10
2022-11-20T22:23:41.412Z,22.60
2022-11-20T22:26:17.228Z,23.20
2022-11-20T22:28:53.822Z,21.70
2022-11-20T22:31:28.952Z,22.50
2022-11-20T22:34:03.275Z,19.70
2022-11-20T22:36:38.660Z,20.60
2022-11-20T22:39:11.760Z,19.50
2022-11-20T22:41:44.059Z,19.50
2022-11-20T22:44:17.523Z,20.30
2022-11-20T22:46:49.945Z,21.30
2022-11-20T22:49:22.883Z,20.00
2022-11-20T22:51:55.155Z,20.40
2022-11-20T22:54:27.691Z,19.60
2022-11-20T22:57:00.415Z,18.70
2022-11-20T22:59:33.308Z,20.60
2022-11-20T23:02:06.296Z,17.90
2022-11-20T23:04:39.063Z,19.70
2022-11-20T23:07:11.398Z,18.70
2022-11-20T23:09:44.650Z,18.00
2022-11-20T23:12:17.538Z,17.80
2022-11-20T23:14:50.221Z,17.40
2022-11-20T23:17:23.389Z,15.40
2022-11-20T23:19:57.915Z,17.80
2022-11-20T23:22:32.751Z,16.50
2022-11-20T23:25:05.790Z,15.60
2022-11-20T23:27:38.497Z,15.30
2022-11-20T23:30:15.149Z,17.10
2022-11-20T23:32:48.023Z,14.90
2022-11-20T23:35:20.414Z,15.50
2022-11-20T23:37:53.247Z,13.10
2022-11-20T23:40:26.306Z,14.40
2022-11-20T23:43:17.009Z,13.60
2022-11-20T23:45:51.555Z,13.70
2022-11-20T23:48:26.882Z,13.50
2022-11-20T23:50:59.757Z,14.00
2022-11-20T23:53:32.847Z,11.30
2022-11-20T23:56:07.902Z,12.40
2022-11-20T23:58:42.654Z,10.60
